Tuesday, June 19, 2018, 12:55 AM EDT
Back to Local

KLEW, Auburn-lewiston

Location: Auburn, ME, United States Lat: 44.05
Local Time: 12:55 AM EDT ( 4:55 GMT) Lon: -70.283
Time Zone: US/Eastern Elev: 288 ft

Show me the last for .
Show Decoded

2018-06-18 23:56 METAR KLEW 190356Z AUTO 22007KT 10SM -RA BKN047 OVC060 23/21 A2955 RMK AO2 RAB06
                 SLP016 P0001 T02280211 403000106 =
2018-06-18 22:56 METAR KLEW 190256Z AUTO 21010KT 10SM BKN100 23/22 A2956 RMK AO2 SLP021 60000
                 T02280217 56015 =
2018-06-18 22:09 METAR KLEW 190209Z AUTO 21009KT 10SM SCT004 BKN110 22/22 A2958 RMK AO2 =
2018-06-18 21:56 METAR KLEW 190156Z AUTO 20007KT 10SM BKN004 22/22 A2958 RMK AO2 RAE23 SLP029
                 P0000 T02220217 =
2018-06-18 21:53 METAR KLEW 190153Z AUTO 20008KT 10SM BKN004 22/22 A2959 RMK AO2 RAE23 P0000 =
2018-06-18 20:56 METAR KLEW 190056Z AUTO 18009KT 10SM -RA FEW005 BKN055 OVC070 22/21 A2961 RMK
                 AO2 RAB54 SLP038 P0000 T02170211 =
2018-06-18 20:52 METAR KLEW 190052Z AUTO 19010KT 10SM FEW005 BKN055 OVC070 22/21 A2961 RMK AO2 =
2018-06-18 20:43 METAR KLEW 190043Z AUTO 18010KT 10SM BKN005 BKN065 OVC075 22/22 A2961 RMK AO2 =
2018-06-18 20:18 METAR KLEW 190018Z AUTO 18009KT 10SM FEW005 SCT120 22/22 A2963 RMK AO2 =
2018-06-18 19:56 METAR KLEW 182356Z AUTO 18010KT 10SM FEW120 22/22 A2962 RMK AO2 LTG DSNT SE
                 TSB25E40RAE40 SLP044 P0000 60024 T02220217 10300 20222 56021 =
2018-06-18 19:46 METAR KLEW 182346Z AUTO 18010KT 10SM FEW034 22/22 A2962 RMK AO2 LTG DSNT SE
                 TSB25E40RAE40 P0000 =
2018-06-18 19:31 METAR KLEW 182331Z AUTO 18009KT 10SM VCTS -RA FEW034 SCT110 22/21 A2963 RMK AO2
                 LTG DSNT SE AND S TSB25 P0000 =
2018-06-18 18:56 METAR KLEW 182256Z AUTO 20004KT 10SM -RA FEW048 BKN070 23/22 A2964 RMK AO2 LTG
                 DSNT SE-SW PRESFR SLP049 P0003 T02280217 =
2018-06-18 17:56 METAR KLEW 182156Z AUTO 19009KT 7SM RA FEW034 BKN055 OVC070 23/22 A2966 RMK AO2
                 LTG DSNT SE-SW TSB12E32 SLP057 P0019 T02280217 =
2018-06-18 17:38 METAR KLEW 182138Z AUTO 22010KT 9SM RA SCT039 BKN055 OVC075 23/21 A2968 RMK AO2
                 LTG DSNT SE AND SW TSB12E32 P0015 =
2018-06-18 17:18 METAR KLEW 182118Z AUTO 24012KT 9SM VCTS -RA FEW040 BKN050 OVC070 24/23 A2972
                 RMK AO2 LTG DSNT SW TSB12 PRESRR P0002 =
2018-06-18 16:56 METAR KLEW 182056Z AUTO 20009KT 7SM -RA FEW039 SCT050 OVC070 25/23 A2968 RMK AO2
                 LTG DSNT SW AND W SLP065 P0002 60002 T02500228 56010 =
2018-06-18 15:56 METAR KLEW 181956Z AUTO 22005KT 10SM -RA FEW041 BKN050 BKN065 28/22 A2970 RMK
                 AO2 RAB38 SLP069 P0000 T02780222 =
2018-06-18 14:56 METAR KLEW 181856Z AUTO 21012G20KT 10SM CLR 30/21 A2970 RMK AO2 SLP068 T03000211
                 =
2018-06-18 13:56 METAR KLEW 181756Z AUTO 23009KT 10SM CLR 30/21 A2972 RMK AO2 SLP074 T03000206
                 10300 20144 58030 =
2018-06-18 12:56 METAR KLEW 181656Z AUTO 21007KT 10SM CLR 29/20 A2975 RMK AO2 SLP085 T02940200
                 TSNO =
2018-06-18 11:56 METAR KLEW 181556Z AUTO 20007KT 10SM CLR 28/19 A2978 RMK AO2 SLP097 T02830189 =
2018-06-18 10:56 METAR KLEW 181456Z AUTO 19010KT 10SM CLR 26/18 A2981 RMK AO2 SLP106 T02610178
                 58029 =
2018-06-18 09:56 METAR KLEW 181356Z AUTO 18005KT 10SM CLR 22/16 A2985 RMK AO2 SLP120 T02170156 =
2018-06-18 08:56 METAR KLEW 181256Z AUTO 16004KT 10SM CLR 17/14 A2987 RMK AO2 SLP129 T01670139 =
2018-06-18 08:07 METAR KLEW 181207Z AUTO 00000KT 10SM FEW002 15/13 A2989 RMK AO2 =
2018-06-18 07:56 METAR KLEW 181156Z AUTO 00000KT 10SM CLR 14/13 A2989 RMK AO2 SLP137 60000
                 T01440128 10144 20111 56019 =
2018-06-18 06:56 METAR KLEW 181056Z AUTO 16003KT 10SM CLR 13/12 A2991 RMK AO2 SLP142 T01330122 =
2018-06-18 05:56 METAR KLEW 180956Z AUTO 17004KT 10SM CLR 13/12 A2992 RMK AO2 RAE17 SLP145 P0000
                 T01280117 =
2018-06-18 05:48 METAR KLEW 180948Z AUTO 15003KT 10SM FEW002 13/12 A2992 RMK AO2 RAE17 P0000 =
2018-06-18 04:56 METAR KLEW 180856Z AUTO 15004KT 10SM -RA FEW120 12/12 A2995 RMK AO2 RAB54 SLP155
                 P0000 60000 T01220117 56019 =
2018-06-18 03:56 METAR KLEW 180756Z AUTO 18003KT 10SM CLR 12/11 A2996 RMK AO2 SLP159 T01170111 =
2018-06-18 03:15 METAR KLEW 180715Z AUTO 19003KT 9SM SCT003 11/11 A2997 RMK AO2 =
2018-06-18 03:06 METAR KLEW 180706Z AUTO 19004KT 8SM BKN003 11/11 A2998 RMK AO2 =
2018-06-18 02:56 METAR KLEW 180656Z AUTO 19004KT 8SM SCT003 11/11 A2998 RMK AO2 SLP165 T01110111
                 TSNO =
2018-06-18 02:10 METAR KLEW 180610Z AUTO 18005KT 9SM FEW003 12/11 A3000 RMK AO2 =
2018-06-18 01:56 METAR KLEW 180556Z AUTO 19004KT 10SM CLR 12/11 A3000 RMK AO2 SLP173 T01170111
                 10156 20106 58018 =
2018-06-18 00:56 METAR KLEW 180456Z AUTO 16005KT 10SM CLR 12/11 A3002 RMK AO2 SLP180 T01170111 =

Support USWX by starting your Amazon purchase here.